Time;durP1;ratioP1;P1;durP2;ratioP2;P2;SDS_P1;SDS_P2;PMS_P1;PMS_P2;Temp;Humidity;BMP_temperature;BMP_pressure;BME280_temperature;BME280_humidity;BME280_pressure;Samples;Min_cycle;Max_cycle;Signal;HPM_P1;HPM_P2
2021/06/13 00:02:19;;;;;;;10.77;7.43;;;588.90;1971.20;;;;;;4862514;29;20084;-84
2021/06/13 00:04:45;;;;;;;11.05;7.50;;;588.90;1945.60;;;;;;4861595;29;20392;-84
2021/06/13 00:07:11;;;;;;;10.90;7.50;;;588.90;1971.20;;;;;;4858789;29;20034;-84
2021/06/13 00:09:36;;;;;;;11.40;7.85;;;588.80;1971.20;;;;;;4856135;29;20432;-84
2021/06/13 00:12:02;;;;;;;10.05;7.50;;;588.80;1971.20;;;;;;4860474;29;20057;-84
2021/06/13 00:14:28;;;;;;;10.55;8.10;;;588.90;1971.20;;;;;;4863158;29;20025;-84
2021/06/13 00:16:54;;;;;;;10.63;7.40;;;588.80;1971.20;;;;;;4859465;29;20388;-84
2021/06/13 00:19:20;;;;;;;7.72;6.80;;;588.80;1971.20;;;;;;4855190;29;20025;-84
2021/06/13 00:21:45;;;;;;;8.88;7.25;;;588.80;1971.20;;;;;;4853427;29;20038;-84
2021/06/13 00:24:12;;;;;;;8.63;6.90;;;588.80;1996.80;;;;;;4855675;29;20399;-84
2021/06/13 00:26:37;;;;;;;8.15;7.20;;;588.80;1996.80;;;;;;4855075;29;20029;-83
2021/06/13 00:29:04;;;;;;;12.05;7.55;;;588.80;1996.80;;;;;;4854222;29;20387;-84
2021/06/13 00:31:29;;;;;;;8.38;7.13;;;564.10;1996.80;;;;;;4855644;29;20033;-84
2021/06/13 00:33:55;;;;;;;13.73;7.45;;;564.10;1996.80;;;;;;4869459;29;20026;-84
2021/06/13 00:36:21;;;;;;;10.30;6.95;;;564.10;1996.80;;;;;;4853279;29;20029;-83
2021/06/13 00:38:47;;;;;;;9.77;7.15;;;564.10;1996.80;;;;;;4860510;29;20024;-84
2021/06/13 00:41:21;;;;;;;7.93;6.97;;;564.10;1996.80;;;;;;4853263;29;20034;-83
2021/06/13 00:43:47;;;;;;;11.85;7.30;;;564.10;1996.80;;;;;;4867889;29;20030;-84
2021/06/13 00:46:13;;;;;;;10.02;6.82;;;564.10;1996.80;;;;;;4871251;29;20025;-84
2021/06/13 00:48:39;;;;;;;8.35;6.35;;;564.10;1971.20;;;;;;4873477;29;20556;-84
2021/06/13 00:51:05;;;;;;;8.90;6.38;;;564.10;1971.20;;;;;;4852360;29;20400;-84
2021/06/13 00:53:31;;;;;;;7.43;6.70;;;564.10;1971.20;;;;;;4857369;29;20021;-84
2021/06/13 00:55:58;;;;;;;10.30;6.30;;;588.80;1971.20;;;;;;4861671;29;20060;-84
2021/06/13 00:58:24;;;;;;;7.65;6.03;;;589.20;1971.20;;;;;;4872123;29;20025;-84
2021/06/13 01:00:49;;;;;;;9.23;6.05;;;588.80;1945.60;;;;;;4876164;29;20025;-84
2021/06/13 01:03:16;;;;;;;7.32;6.18;;;588.80;1945.60;;;;;;4853911;29;20121;-83
2021/06/13 01:05:43;;;;;;;7.13;6.00;;;588.80;1945.60;;;;;;4855664;29;20018;-84
2021/06/13 01:08:21;;;;;;;6.97;5.75;;;588.80;1945.60;;;;;;4866921;29;20029;-84
2021/06/13 01:11:08;;;;;;;9.40;6.25;;;588.80;1945.60;;;;;;4851875;29;20052;-84
2021/06/13 01:13:55;;;;;;;6.38;5.20;;;588.80;1945.60;;;;;;4865784;29;20021;-84
2021/06/13 01:16:42;;;;;;;7.55;5.82;;;564.10;1945.60;;;;;;4869141;29;20045;-84
2021/06/13 01:19:22;;;;;;;12.32;6.40;;;588.80;1945.60;;;;;;4858148;29;20035;-84
2021/06/13 01:22:16;;;;;;;8.13;6.45;;;588.80;1945.60;;;;;;4852332;29;20039;-84
2021/06/13 01:25:00;;;;;;;7.75;5.97;;;588.80;1945.60;;;;;;4869493;29;20021;-84
2021/06/13 01:27:35;;;;;;;7.47;5.55;;;588.80;1945.60;;;;;;4855558;29;20025;-84
2021/06/13 01:30:07;;;;;;;8.82;6.30;;;564.10;1945.60;;;;;;4866663;29;20021;-84
2021/06/13 01:32:33;;;;;;;6.60;5.47;;;564.10;1945.60;;;;;;4865098;29;20038;-84
2021/06/13 01:35:06;;;;;;;7.63;5.88;;;564.10;1945.60;;;;;;4868679;29;20055;-84
2021/06/13 01:37:37;;;;;;;10.10;6.07;;;564.10;1945.60;;;;;;4876794;29;20024;-83
2021/06/13 01:40:23;;;;;;;7.90;5.90;;;564.10;1945.60;;;;;;4871441;29;20081;-84
2021/06/13 01:42:51;;;;;;;;;;;564.10;1945.60;;;;;;4869176;29;20105;-84
2021/06/13 01:45:22;;;;;;;7.72;5.68;;;564.10;1945.60;;;;;;4854315;29;19908;-83
2021/06/13 01:47:48;;;;;;;8.77;6.00;;;564.10;1945.60;;;;;;4857369;29;20024;-84
2021/06/13 01:50:16;;;;;;;10.02;6.25;;;564.10;1945.60;;;;;;4852040;29;20037;-84
2021/06/13 01:52:43;;;;;;;9.63;6.90;;;564.10;1945.60;;;;;;4850084;29;20502;-84
2021/06/13 01:55:10;;;;;;;8.50;6.30;;;564.10;1971.20;;;;;;4873357;29;20049;-84
2021/06/13 01:57:39;;;;;;;9.23;5.97;;;564.10;1971.20;;;;;;4859334;29;20044;-83
2021/06/13 02:00:08;;;;;;;11.43;6.60;;;564.10;1996.80;;;;;;4857015;29;20031;-84
2021/06/13 02:02:35;;;;;;;7.65;6.30;;;563.80;2022.40;;;;;;4859367;29;20079;-83
2021/06/13 02:05:01;;;;;;;13.25;7.40;;;563.80;2022.40;;;;;;4860035;29;20111;-83
2021/06/13 02:07:27;;;;;;;8.27;6.65;;;563.70;2048.00;;;;;;4854272;29;20053;-83
2021/06/13 02:09:53;;;;;;;9.07;6.43;;;563.60;2073.60;;;;;;4851241;29;20037;-83
2021/06/13 02:12:19;;;;;;;9.82;6.57;;;563.60;2073.60;;;;;;4852613;29;20043;-84
2021/06/13 02:14:47;;;;;;;9.40;6.82;;;563.60;2073.60;;;;;;4855265;29;20104;-84
2021/06/13 02:17:14;;;;;;;11.80;6.63;;;563.40;2073.60;;;;;;4858260;29;20120;-84
2021/06/13 02:19:44;;;;;;;10.60;7.45;;;563.50;2099.20;;;;;;4853705;29;20088;-83
2021/06/13 02:22:14;;;;;;;10.50;7.18;;;563.30;2227.20;;;;;;4853359;29;20053;-86
2021/06/13 02:24:43;;;;;;;9.35;8.25;;;538.30;2304.00;;;;;;4875358;29;20021;-84
2021/06/13 02:27:13;;;;;;;10.88;7.95;;;538.20;2355.20;;;;;;4853965;29;20075;-83
2021/06/13 02:29:40;;;;;;;8.85;7.60;;;537.90;2380.80;;;;;;4853877;29;20049;-81
2021/06/13 02:32:09;;;;;;;10.82;7.95;;;537.80;2406.40;;;;;;4868563;29;20065;-81
2021/06/13 02:34:37;;;;;;;11.18;8.27;;;537.80;2406.40;;;;;;4849603;29;20469;-85
2021/06/13 02:37:06;;;;;;;12.02;8.90;;;537.60;2406.40;;;;;;4854452;29;20036;-83
2021/06/13 02:39:33;;;;;;;10.35;8.55;;;512.90;2380.80;;;;;;4856068;29;20093;-82
2021/06/13 02:41:59;;;;;;;11.30;8.18;;;537.80;2406.40;;;;;;4855456;29;20025;-81
2021/06/13 02:44:26;;;;;;;13.10;9.77;;;512.80;2380.80;;;;;;4858630;29;20021;-82
2021/06/13 02:46:52;;;;;;;16.70;9.45;;;512.60;2380.80;;;;;;4855896;29;20056;-83
2021/06/13 02:49:18;;;;;;;13.48;9.13;;;512.60;2380.80;;;;;;4868591;29;20049;-83
2021/06/13 02:52:11;;;;;;;11.25;8.30;;;512.60;2380.80;;;;;;4859425;29;20076;-82
2021/06/13 02:54:39;;;;;;;12.25;8.75;;;512.50;2380.80;;;;;;4858349;29;20068;-84
2021/06/13 02:57:16;;;;;;;13.48;8.93;;;512.40;2380.80;;;;;;4851863;29;20025;-84
2021/06/13 02:59:50;;;;;;;12.25;8.77;;;512.40;2380.80;;;;;;4869267;29;20064;-83
2021/06/13 03:02:26;;;;;;;10.68;8.82;;;512.60;2380.80;;;;;;4856473;29;20034;-83
2021/06/13 03:04:53;;;;;;;9.43;8.40;;;512.70;2380.80;;;;;;4865166;29;20551;-83
2021/06/13 03:07:20;;;;;;;13.43;8.95;;;512.80;2380.80;;;;;;4855680;29;20032;-83
2021/06/13 03:09:49;;;;;;;10.35;9.27;;;512.90;2380.80;;;;;;4856278;29;20025;-83
2021/06/13 03:12:16;;;;;;;12.15;9.60;;;512.60;2380.80;;;;;;4854288;29;20033;-83
2021/06/13 03:14:44;;;;;;;13.05;9.23;;;512.70;2380.80;;;;;;4869606;29;20018;-84
2021/06/13 03:17:11;;;;;;;9.77;8.30;;;512.90;2380.80;;;;;;4856292;29;20040;-83
2021/06/13 03:19:41;;;;;;;11.45;9.02;;;537.60;2406.40;;;;;;4852659;29;20037;-83
2021/06/13 03:22:08;;;;;;;14.98;9.55;;;512.90;2380.80;;;;;;4865861;29;20049;-84
2021/06/13 03:24:35;;;;;;;11.43;8.70;;;537.70;2406.40;;;;;;4877356;29;20153;-84
2021/06/13 03:27:02;;;;;;;14.85;10.05;;;537.70;2406.40;;;;;;4875311;29;20037;-84
2021/06/13 03:29:30;;;;;;;15.57;8.13;;;537.70;2406.40;;;;;;4867980;29;20158;-84
2021/06/13 03:31:57;;;;;;;15.32;8.98;;;537.70;2406.40;;;;;;4862313;29;20029;-83
2021/06/13 03:34:23;;;;;;;12.65;8.90;;;537.70;2406.40;;;;;;4870219;29;20404;-84
2021/06/13 03:36:50;;;;;;;11.77;8.30;;;537.70;2406.40;;;;;;4856604;29;20037;-84
2021/06/13 03:39:17;;;;;;;10.93;8.98;;;537.80;2406.40;;;;;;4857521;29;20029;-84
2021/06/13 03:41:44;;;;;;;15.00;8.52;;;537.80;2406.40;;;;;;4867723;29;20112;-84
2021/06/13 03:44:10;;;;;;;10.93;9.05;;;537.80;2406.40;;;;;;4855194;29;20028;-84
2021/06/13 03:46:37;;;;;;;13.45;8.90;;;537.70;2406.40;;;;;;4872279;29;20507;-85
2021/06/13 03:49:05;;;;;;;13.02;8.30;;;537.60;2406.40;;;;;;4856383;29;20068;-85
2021/06/13 03:51:32;;;;;;;15.27;9.25;;;537.80;2406.40;;;;;;4855101;29;20033;-85
2021/06/13 03:53:58;;;;;;;9.95;8.65;;;537.70;2406.40;;;;;;4863931;29;20025;-84
2021/06/13 03:56:55;;;;;;;12.20;9.27;;;537.70;2406.40;;;;;;4872540;29;20100;-86
2021/06/13 03:59:26;;;;;;;9.25;8.25;;;537.60;2406.40;;;;;;4852538;29;20029;-84
2021/06/13 04:01:53;;;;;;;12.45;8.55;;;537.60;2406.40;;;;;;4859326;29;20044;-84
2021/06/13 04:04:20;;;;;;;13.73;9.25;;;537.60;2406.40;;;;;;4861595;29;20081;-85
2021/06/13 04:06:48;;;;;;;10.88;9.73;;;512.90;2380.80;;;;;;4855772;29;20068;-84
2021/06/13 04:09:17;;;;;;;10.50;9.13;;;512.90;2380.80;;;;;;4868232;29;20037;-85
2021/06/13 04:11:44;;;;;;;11.10;8.80;;;512.90;2380.80;;;;;;4858591;29;20037;-83
2021/06/13 04:14:12;;;;;;;9.82;8.32;;;512.90;2380.80;;;;;;4863998;29;20555;-84
2021/06/13 04:16:40;;;;;;;14.23;8.98;;;512.90;2380.80;;;;;;4851318;29;20029;-85
2021/06/13 04:19:09;;;;;;;9.55;8.55;;;512.90;2380.80;;;;;;4871089;29;20077;-84
2021/06/13 04:21:35;;;;;;;11.43;9.07;;;512.80;2380.80;;;;;;4862218;29;20140;-84
2021/06/13 04:24:02;;;;;;;11.07;9.52;;;512.80;2380.80;;;;;;4857327;29;20036;-85
2021/06/13 04:26:29;;;;;;;11.15;9.00;;;512.80;2380.80;;;;;;4854175;29;20036;-84
2021/06/13 04:28:55;;;;;;;10.77;9.13;;;512.80;2380.80;;;;;;4851957;29;20024;-85
2021/06/13 04:31:21;;;;;;;11.65;10.13;;;512.80;2380.80;;;;;;4879146;29;20041;-83
2021/06/13 04:33:50;;;;;;;10.95;9.75;;;512.70;2380.80;;;;;;4855252;29;20384;-85
2021/06/13 04:36:17;;;;;;;12.50;10.50;;;512.90;2380.80;;;;;;4857602;29;20034;-85
2021/06/13 04:38:43;;;;;;;12.52;9.52;;;512.80;2380.80;;;;;;4864471;29;20021;-86
2021/06/13 04:41:10;;;;;;;10.35;9.18;;;512.60;2380.80;;;;;;4857143;29;20032;-85
2021/06/13 04:43:38;;;;;;;12.63;10.27;;;512.60;2380.80;;;;;;4856700;29;20056;-85
2021/06/13 04:46:05;;;;;;;12.85;9.80;;;512.60;2380.80;;;;;;4852938;29;20094;-85
2021/06/13 04:48:31;;;;;;;11.32;9.52;;;512.40;2380.80;;;;;;4857378;29;20102;-85
2021/06/13 04:51:02;;;;;;;12.63;10.25;;;512.60;2380.80;;;;;;4860236;29;20033;-85
2021/06/13 04:53:52;;;;;;;10.77;9.68;;;512.70;2380.80;;;;;;4853482;29;20036;-85
2021/06/13 04:56:36;;;;;;;12.18;9.23;;;512.50;2380.80;;;;;;4854410;29;20432;-84
2021/06/13 04:59:02;;;;;;;13.07;8.82;;;512.60;2380.80;;;;;;4869474;29;20029;-85
2021/06/13 05:01:29;;;;;;;10.35;9.25;;;512.50;2380.80;;;;;;4855143;29;20032;-84
2021/06/13 05:03:55;;;;;;;12.40;8.75;;;512.80;2380.80;;;;;;4871392;29;20022;-85
2021/06/13 05:06:21;;;;;;;12.30;9.10;;;512.90;2380.80;;;;;;4854378;29;20492;-85
2021/06/13 05:08:48;;;;;;;9.73;8.23;;;512.80;2380.80;;;;;;4869585;29;20541;-84
2021/06/13 05:11:14;;;;;;;12.43;9.40;;;512.80;2380.80;;;;;;4859083;29;20037;-85
2021/06/13 05:13:40;;;;;;;14.48;8.52;;;512.80;2380.80;;;;;;4852197;29;20489;-84
2021/06/13 05:16:06;;;;;;;10.30;8.32;;;512.80;2380.80;;;;;;4863145;29;20029;-86
2021/06/13 05:18:33;;;;;;;12.48;9.45;;;512.80;2380.80;;;;;;4852901;29;20029;-85
2021/06/13 05:20:58;;;;;;;13.63;8.75;;;512.90;2380.80;;;;;;4860457;29;20384;-84
2021/06/13 05:23:25;;;;;;;10.10;8.48;;;512.80;2380.80;;;;;;4854344;29;20045;-84
2021/06/13 05:25:53;;;;;;;11.55;8.70;;;512.80;2380.80;;;;;;4848585;29;20036;-84
2021/06/13 05:28:21;;;;;;;12.10;8.85;;;512.80;2380.80;;;;;;4862358;29;20041;-84
2021/06/13 05:30:48;;;;;;;11.15;8.35;;;512.50;2380.80;;;;;;4854022;29;20052;-85
2021/06/13 05:33:13;;;;;;;7.50;6.65;;;512.60;2380.80;;;;;;4859030;29;20025;-85
2021/06/13 05:35:40;;;;;;;11.88;8.07;;;512.70;2380.80;;;;;;4855549;29;20034;-84
2021/06/13 05:38:06;;;;;;;9.13;7.50;;;512.80;2380.80;;;;;;4857119;29;20047;-84
2021/06/13 05:40:34;;;;;;;9.15;8.18;;;512.80;2380.80;;;;;;4853895;29;20036;-84
2021/06/13 05:42:59;;;;;;;10.20;8.10;;;512.70;2380.80;;;;;;4853212;29;20024;-81
2021/06/13 05:45:27;;;;;;;13.00;8.40;;;512.80;2380.80;;;;;;4858656;29;20396;-80
2021/06/13 05:47:53;;;;;;;12.25;7.47;;;512.70;2380.80;;;;;;4848726;29;20425;-84
2021/06/13 05:50:20;;;;;;;8.68;7.65;;;512.80;2380.80;;;;;;4854162;29;20075;-82
2021/06/13 05:52:46;;;;;;;9.73;8.20;;;512.80;2380.80;;;;;;4844909;29;20037;-81
2021/06/13 05:55:13;;;;;;;9.60;6.68;;;512.90;2380.80;;;;;;4850496;29;20040;-80
2021/06/13 05:57:39;;;;;;;8.60;6.82;;;512.90;2380.80;;;;;;4853352;29;20029;-82
2021/06/13 06:00:07;;;;;;;10.65;7.20;;;512.80;2380.80;;;;;;4857368;29;20439;-83
2021/06/13 06:02:33;;;;;;;9.05;7.13;;;512.90;2380.80;;;;;;4857038;29;20028;-83
2021/06/13 06:04:59;;;;;;;13.05;7.80;;;512.90;2380.80;;;;;;4856477;29;20107;-82
2021/06/13 06:07:25;;;;;;;10.07;7.30;;;537.60;2406.40;;;;;;4853182;29;20040;-82
2021/06/13 06:09:50;;;;;;;9.30;7.15;;;537.60;2406.40;;;;;;4870238;29;20496;-81
2021/06/13 06:12:16;;;;;;;8.77;7.53;;;512.90;2380.80;;;;;;4853855;29;20033;-80
2021/06/13 06:14:44;;;;;;;9.43;7.53;;;537.70;2406.40;;;;;;4865435;29;20518;-81
2021/06/13 06:17:10;;;;;;;10.90;8.02;;;537.70;2406.40;;;;;;4870191;29;20029;-81
2021/06/13 06:19:36;;;;;;;10.95;7.15;;;537.80;2406.40;;;;;;4847035;29;20166;-80
2021/06/13 06:22:03;;;;;;;13.80;7.22;;;538.10;2406.40;;;;;;4850525;29;20088;-79
2021/06/13 06:24:29;;;;;;;9.48;7.00;;;537.90;2406.40;;;;;;4863745;29;20115;-79
2021/06/13 06:26:55;;;;;;;8.30;6.72;;;537.80;2406.40;;;;;;4843322;29;20026;-79
2021/06/13 06:29:21;;;;;;;7.53;6.18;;;537.90;2406.40;;;;;;4842685;29;20025;-79
2021/06/13 06:31:47;;;;;;;10.73;5.75;;;537.90;2406.40;;;;;;4859335;29;20049;-79
2021/06/13 06:34:14;;;;;;;9.32;5.60;;;537.90;2406.40;;;;;;4866427;29;20097;-78
2021/06/13 06:36:40;;;;;;;6.70;4.65;;;538.00;2406.40;;;;;;4862688;29;20047;-79
2021/06/13 06:39:06;;;;;;;7.60;5.38;;;537.90;2380.80;;;;;;4861534;29;20477;-78
2021/06/13 06:41:32;;;;;;;8.43;5.80;;;538.00;2380.80;;;;;;4868480;29;20421;-80
2021/06/13 06:43:57;;;;;;;7.95;4.50;;;537.80;2406.40;;;;;;4861999;29;20022;-79
2021/06/13 06:46:23;;;;;;;11.82;4.97;;;537.90;2355.20;;;;;;4862944;29;20036;-80
2021/06/13 06:48:49;;;;;;;8.07;4.28;;;538.00;2329.60;;;;;;4857839;29;20022;-81
2021/06/13 06:51:15;;;;;;;5.68;3.95;;;537.90;2278.40;;;;;;4862978;29;20049;-79
2021/06/13 06:53:40;;;;;;;8.75;4.50;;;537.70;2304.00;;;;;;4855438;29;20025;-81
2021/06/13 06:56:07;;;;;;;18.00;4.25;;;537.80;2252.80;;;;;;4864126;29;20447;-79
2021/06/13 06:58:33;;;;;;;5.47;3.67;;;512.90;2252.80;;;;;;4862282;29;20453;-78
2021/06/13 07:00:58;;;;;;;6.88;4.55;;;512.80;2278.40;;;;;;4867530;29;20025;-80
2021/06/13 07:03:24;;;;;;;7.55;3.70;;;512.90;2227.20;;;;;;4866370;29;20112;-79
2021/06/13 07:05:50;;;;;;;8.98;3.80;;;512.80;2227.20;;;;;;4858815;29;20129;-78
2021/06/13 07:08:16;;;;;;;7.35;4.15;;;512.90;2201.60;;;;;;4847499;29;20032;-80
2021/06/13 07:10:41;;;;;;;6.00;3.97;;;512.90;2201.60;;;;;;4869267;29;20388;-78
2021/06/13 07:13:07;;;;;;;8.48;4.25;;;512.70;2201.60;;;;;;4847579;29;20527;-80
2021/06/13 07:15:33;;;;;;;5.88;3.90;;;512.70;2201.60;;;;;;4869976;29;20022;-80
2021/06/13 07:17:58;;;;;;;9.50;3.42;;;512.70;2201.60;;;;;;4873929;29;20021;-82
2021/06/13 07:20:24;;;;;;;6.28;3.67;;;512.80;2227.20;;;;;;4850933;29;20088;-79
2021/06/13 07:22:50;;;;;;;5.10;4.00;;;512.80;2176.00;;;;;;4863850;29;20132;-80
2021/06/13 07:25:16;;;;;;;9.95;3.97;;;512.90;2201.60;;;;;;4868621;29;20108;-79
2021/06/13 07:27:42;;;;;;;6.78;3.60;;;537.70;2176.00;;;;;;4865190;29;20503;-80
2021/06/13 07:30:10;;;;;;;8.82;3.90;;;512.90;2201.60;;;;;;4865845;29;20041;-79
2021/06/13 07:32:36;;;;;;;7.97;3.80;;;537.70;2176.00;;;;;;4867083;29;20429;-79
2021/06/13 07:35:04;;;;;;;5.85;3.97;;;537.90;2176.00;;;;;;4864317;29;20104;-79
2021/06/13 07:37:30;;;;;;;13.93;3.83;;;538.20;2176.00;;;;;;4869389;29;20040;-78
2021/06/13 07:39:55;;;;;;;6.45;3.42;;;538.40;2176.00;;;;;;4863677;29;20057;-78
2021/06/13 07:42:21;;;;;;;12.55;4.28;;;538.50;2099.20;;;;;;4880862;29;20024;-79
2021/06/13 07:44:48;;;;;;;9.13;3.67;;;538.50;2099.20;;;;;;4864033;29;20029;-81
2021/06/13 07:47:14;;;;;;;9.27;3.92;;;563.20;2073.60;;;;;;4881054;29;20088;-80
2021/06/13 07:49:39;;;;;;;9.05;3.78;;;563.30;2073.60;;;;;;4863859;29;20480;-80
2021/06/13 07:52:05;;;;;;;9.75;3.15;;;538.50;2048.00;;;;;;4864057;29;20076;-80
2021/06/13 07:54:31;;;;;;;8.32;3.50;;;563.20;2022.40;;;;;;4860895;29;20029;-79
2021/06/13 07:56:57;;;;;;;7.93;3.60;;;563.30;1996.80;;;;;;4876500;29;20488;-80
2021/06/13 07:59:23;;;;;;;10.77;3.38;;;563.20;1971.20;;;;;;4863890;29;20051;-79
2021/06/13 08:01:49;;;;;;;5.65;3.20;;;563.50;1971.20;;;;;;4863691;29;20448;-81
2021/06/13 08:04:14;;;;;;;10.45;3.13;;;563.60;1920.00;;;;;;4880661;29;20029;-80
2021/06/13 08:06:40;;;;;;;6.38;3.25;;;563.30;1945.60;;;;;;4879751;29;20085;-79
2021/06/13 08:09:06;;;;;;;14.80;4.32;;;563.30;1971.20;;;;;;4867612;29;20030;-80
2021/06/13 08:11:32;;;;;;;6.75;3.47;;;563.40;1996.80;;;;;;4867080;29;20032;-80
2021/06/13 08:13:58;;;;;;;4.47;3.38;;;563.30;1945.60;;;;;;4866773;29;20092;-79
2021/06/13 08:16:24;;;;;;;7.07;2.95;;;563.50;1945.60;;;;;;4862671;29;20022;-80
2021/06/13 08:18:50;;;;;;;5.20;2.90;;;563.30;1971.20;;;;;;4864501;29;20028;-81
2021/06/13 08:21:16;;;;;;;4.95;2.80;;;563.40;1920.00;;;;;;4861030;29;20046;-80
2021/06/13 08:23:42;;;;;;;10.85;3.63;;;563.60;1894.40;;;;;;4873493;29;20085;-79
2021/06/13 08:26:08;;;;;;;8.95;3.13;;;563.80;1894.40;;;;;;4847546;29;20065;-82
2021/06/13 08:28:33;;;;;;;7.43;3.17;;;563.90;1894.40;;;;;;4871514;29;20018;-80
2021/06/13 08:30:59;;;;;;;8.82;3.08;;;563.80;1817.60;;;;;;4866071;29;20238;-78
2021/06/13 08:33:25;;;;;;;8.05;2.90;;;563.60;1817.60;;;;;;4864027;29;20082;-82
2021/06/13 08:35:52;;;;;;;5.47;3.63;;;563.70;1843.20;;;;;;4850357;29;20025;-79
2021/06/13 08:38:20;;;;;;;5.40;3.00;;;563.80;1792.00;;;;;;4865220;29;20043;-81
2021/06/13 08:40:47;;;;;;;9.10;3.10;;;589.10;1843.20;;;;;;4866619;29;20085;-77
2021/06/13 08:43:13;;;;;;;8.60;3.00;;;589.30;1817.60;;;;;;4861541;29;20029;-78
2021/06/13 08:45:40;;;;;;;6.57;3.30;;;589.20;1766.40;;;;;;4863216;29;20036;-79
2021/06/13 08:48:07;;;;;;;9.90;3.22;;;589.30;1715.20;;;;;;4862948;29;20056;-79
2021/06/13 08:50:34;;;;;;;8.23;2.45;;;589.40;1715.20;;;;;;4850307;29;20033;-80
2021/06/13 08:53:00;;;;;;;5.15;3.00;;;589.30;1664.00;;;;;;4863078;29;20041;-80
2021/06/13 08:55:28;;;;;;;5.65;3.00;;;589.30;1740.80;;;;;;4879536;29;20025;-81
2021/06/13 08:57:55;;;;;;;6.85;3.42;;;589.30;1715.20;;;;;;4862923;29;20093;-79
2021/06/13 09:00:24;;;;;;;6.55;3.35;;;589.20;1766.40;;;;;;4879261;29;20021;-80
2021/06/13 09:02:50;;;;;;;6.32;3.30;;;589.30;1715.20;;;;;;4879793;29;20037;-81
2021/06/13 09:05:20;;;;;;;7.65;2.60;;;589.70;1664.00;;;;;;4879408;29;20032;-79
2021/06/13 09:07:57;;;;;;;8.07;2.55;;;614.40;1664.00;;;;;;4863378;29;20112;-80
2021/06/13 09:10:26;;;;;;;3.80;2.15;;;614.70;1536.00;;;;;;4879448;29;20543;-80
2021/06/13 09:13:07;;;;;;;8.68;2.20;;;614.80;1561.60;;;;;;4879426;29;20033;-80
2021/06/13 09:15:43;;;;;;;6.25;2.42;;;614.70;1510.40;;;;;;4879189;29;20147;-79
2021/06/13 09:18:29;;;;;;;4.00;2.40;;;614.70;1459.20;;;;;;4862297;29;20037;-80
2021/06/13 09:20:56;;;;;;;9.38;2.30;;;614.90;1459.20;;;;;;4784428;29;20146;-79
2021/06/13 09:23:23;;;;;;;6.88;3.17;;;614.80;1510.40;;;;;;4785747;30;20096;-82
2021/06/13 09:26:00;;;;;;;5.22;2.88;;;614.50;1510.40;;;;;;4770687;30;20039;-78
2021/06/13 09:28:28;;;;;;;5.13;2.35;;;615.10;1484.80;;;;;;4773215;30;20037;-79
2021/06/13 09:30:54;;;;;;;4.13;2.63;;;614.90;1459.20;;;;;;4770537;30;20399;-80
2021/06/13 09:33:23;;;;;;;8.20;2.83;;;615.00;1459.20;;;;;;4784355;30;20493;-80
2021/06/13 09:35:50;;;;;;;9.45;2.85;;;615.20;1484.80;;;;;;4785073;30;20114;-79
2021/06/13 09:38:18;;;;;;;14.02;3.20;;;615.10;1484.80;;;;;;4758043;30;20078;-80
2021/06/13 09:40:58;;;;;;;9.35;3.03;;;615.10;1433.60;;;;;;4767816;30;20080;-80
2021/06/13 09:43:26;;;;;;;4.03;2.13;;;614.90;1459.20;;;;;;4782292;30;20027;-79
2021/06/13 09:45:56;;;;;;;5.70;2.55;;;614.70;1433.60;;;;;;4763670;30;20125;-79
2021/06/13 09:48:22;;;;;;;4.78;2.10;;;614.50;1433.60;;;;;;4756268;30;20564;-79
2021/06/13 09:50:51;;;;;;;3.95;2.20;;;614.80;1459.20;;;;;;4784512;30;20137;-82
2021/06/13 09:53:25;;;;;;;5.35;2.08;;;615.20;1433.60;;;;;;4766435;30;20112;-79
2021/06/13 09:56:13;;;;;;;3.47;1.92;;;615.30;1408.00;;;;;;4781212;30;20035;-78
2021/06/13 09:58:51;;;;;;;4.95;2.30;;;640.30;1382.40;;;;;;4834614;29;20049;-79
2021/06/13 10:01:18;;;;;;;5.65;2.55;;;640.60;1356.80;;;;;;4851258;29;20125;-78
2021/06/13 10:03:47;;;;;;;3.03;2.00;;;640.70;1331.20;;;;;;4847074;29;20029;-79
2021/06/13 10:06:15;;;;;;;6.80;2.13;;;640.10;1331.20;;;;;;4840968;29;20046;-77
2021/06/13 10:08:42;;;;;;;5.32;2.42;;;640.10;1382.40;;;;;;4842201;29;20087;-79
2021/06/13 10:11:09;;;;;;;3.33;2.30;;;640.20;1305.60;;;;;;4855929;29;20053;-80
2021/06/13 10:13:59;;;;;;;6.80;2.47;;;640.60;1280.00;;;;;;4846936;29;20042;-80
2021/06/13 10:16:30;;;;;;;6.18;2.45;;;640.90;1305.60;;;;;;4843081;29;20018;-79
2021/06/13 10:18:59;;;;;;;7.50;2.55;;;640.60;1280.00;;;;;;4846874;29;20449;-79
2021/06/13 10:21:27;;;;;;;5.82;2.30;;;640.80;1280.00;;;;;;4844798;29;20030;-79
2021/06/13 10:23:54;;;;;;;7.75;2.25;;;665.60;1305.60;;;;;;4859553;29;20048;-78
2021/06/13 10:26:20;;;;;;;11.23;2.35;;;665.70;1305.60;;;;;;4874028;29;20504;-78
2021/06/13 10:28:46;;;;;;;7.78;2.70;;;640.80;1203.20;;;;;;4877914;29;20045;-79
2021/06/13 10:31:12;;;;;;;3.80;2.20;;;640.80;1254.40;;;;;;4877993;29;20033;-78
2021/06/13 10:33:40;;;;;;;7.63;2.90;;;640.80;1177.60;;;;;;4877693;29;20104;-79
2021/06/13 10:36:07;;;;;;;4.82;2.10;;;665.70;1177.60;;;;;;4861251;29;20021;-78
2021/06/13 10:38:32;;;;;;;10.40;2.65;;;665.70;1126.40;;;;;;4877864;29;20103;-78
2021/06/13 10:40:59;;;;;;;7.07;2.20;;;665.70;1126.40;;;;;;4877979;29;20045;-79
2021/06/13 10:43:27;;;;;;;11.25;2.35;;;666.00;1152.00;;;;;;4877827;29;20035;-80
2021/06/13 10:46:06;;;;;;;8.98;2.47;;;666.20;1075.20;;;;;;4877918;29;20025;-80
2021/06/13 10:48:38;;;;;;;7.68;1.98;;;666.30;1152.00;;;;;;4861291;29;20024;-80
2021/06/13 10:51:27;;;;;;;6.32;2.35;;;666.30;1100.80;;;;;;4877555;29;20400;-80
2021/06/13 10:53:53;;;;;;;9.65;2.45;;;666.10;1126.40;;;;;;4877736;29;20037;-80
2021/06/13 10:56:25;;;;;;;5.90;2.10;;;666.10;1126.40;;;;;;4864096;29;20080;-80
2021/06/13 10:58:56;;;;;;;4.80;1.77;;;691.20;1126.40;;;;;;4858351;29;20048;-80
2021/06/13 11:01:27;;;;;;;8.77;2.40;;;666.20;1075.20;;;;;;4866708;29;20481;-80
2021/06/13 11:04:05;;;;;;;7.25;2.00;;;665.70;1126.40;;;;;;4863176;29;20052;-80
2021/06/13 11:06:37;;;;;;;12.63;2.53;;;665.60;1075.20;;;;;;4848971;29;20025;-80
2021/06/13 11:09:06;;;;;;;6.07;3.47;;;640.90;1100.80;;;;;;4863672;29;20029;-78
2021/06/13 11:11:35;;;;;;;7.95;2.95;;;665.80;1075.20;;;;;;4850937;29;20033;-80
2021/06/13 11:14:36;;;;;;;8.38;2.03;;;666.10;1049.60;;;;;;4862526;29;20022;-81
2021/06/13 11:17:02;;;;;;;5.95;2.05;;;666.10;1024.00;;;;;;4787106;29;20396;-78
2021/06/13 11:19:30;;;;;;;7.22;1.80;;;666.30;1024.00;;;;;;4790774;29;20031;-80
2021/06/13 11:22:17;;;;;;;5.13;2.10;;;666.40;1049.60;;;;;;4787386;29;20157;-79
2021/06/13 11:24:55;;;;;;;9.45;2.38;;;666.30;972.80;;;;;;4799773;29;20039;-80
2021/06/13 11:27:21;;;;;;;7.03;2.08;;;691.20;1024.00;;;;;;4796582;29;20087;-79
2021/06/13 11:29:50;;;;;;;5.55;1.80;;;691.30;1024.00;;;;;;4798857;29;20466;-79
2021/06/13 11:32:16;;;;;;;4.90;1.75;;;691.30;947.20;;;;;;4801572;29;20047;-80
2021/06/13 11:34:49;;;;;;;2.72;1.52;;;691.30;998.40;;;;;;4785269;29;20057;-80
2021/06/13 11:37:25;;;;;;;7.95;1.92;;;666.30;947.20;;;;;;4777131;29;20034;-79
2021/06/13 11:39:57;;;;;;;8.60;2.05;;;691.20;998.40;;;;;;4786204;29;20035;-80
2021/06/13 11:42:23;;;;;;;15.07;2.35;;;691.30;921.60;;;;;;4798795;29;20029;-80
2021/06/13 11:44:50;;;;;;;5.82;1.90;;;691.30;921.60;;;;;;4802600;29;20039;-79
2021/06/13 11:47:31;;;;;;;7.15;2.63;;;691.50;947.20;;;;;;4803978;29;20027;-80
2021/06/13 11:49:58;;;;;;;5.88;1.98;;;691.70;921.60;;;;;;4806881;29;20202;-80
2021/06/13 11:52:55;;;;;;;4.50;2.03;;;691.70;870.40;;;;;;4864797;29;20074;-80
2021/06/13 11:55:47;;;;;;;4.70;2.15;;;691.70;921.60;;;;;;4866780;29;20112;-79
2021/06/13 11:58:13;;;;;;;7.35;1.60;;;666.30;947.20;;;;;;4850371;29;20511;-79
2021/06/13 12:00:39;;;;;;;9.75;2.10;;;666.00;972.80;;;;;;4870282;29;20056;-80
2021/06/13 12:03:05;;;;;;;6.90;1.73;;;666.20;998.40;;;;;;4850253;29;20480;-80
2021/06/13 12:05:31;;;;;;;6.78;2.20;;;666.00;972.80;;;;;;4847615;29;20029;-80
2021/06/13 12:07:59;;;;;;;5.63;2.05;;;666.20;998.40;;;;;;4862496;29;20120;-81
2021/06/13 12:10:29;;;;;;;8.98;1.80;;;666.50;998.40;;;;;;4848333;29;20060;-79
2021/06/13 12:13:09;;;;;;;7.22;1.70;;;666.50;947.20;;;;;;4857611;29;20419;-79
2021/06/13 12:15:35;;;;;;;9.20;1.90;;;691.20;947.20;;;;;;4866075;29;20096;-79
2021/06/13 12:18:02;;;;;;;6.05;2.35;;;691.20;947.20;;;;;;4862181;29;20108;-80
2021/06/13 12:20:29;;;;;;;6.60;2.42;;;666.40;921.60;;;;;;4862624;29;20033;-80
2021/06/13 12:28:14;;;;;;;6.40;1.85;;;666.10;921.60;;;;;;4864611;29;20065;-81
2021/06/13 12:30:41;;;;;;;13.15;1.90;;;666.50;972.80;;;;;;4860091;29;20476;-80